sensor_id;sensor_type;location;lat;lon;timestamp;pressure;altitude;pressure_sealevel;temperature;humidity
50867;BME280;36839;51.946;21.002;2023-04-30T00:00:36;99881.26;;;10.60;100.00
50867;BME280;36839;51.946;21.002;2023-04-30T00:03:31;99880.33;;;10.59;100.00
50867;BME280;36839;51.946;21.002;2023-04-30T00:05:59;99880.43;;;10.59;100.00
50867;BME280;36839;51.946;21.002;2023-04-30T00:08:28;99881.94;;;10.57;100.00
50867;BME280;36839;51.946;21.002;2023-04-30T00:10:55;99885.48;;;10.55;100.00
50867;BME280;36839;51.946;21.002;2023-04-30T00:13:22;99881.18;;;10.52;100.00
50867;BME280;36839;51.946;21.002;2023-04-30T00:15:50;99885.09;;;10.49;100.00
50867;BME280;36839;51.946;21.002;2023-04-30T00:18:16;99885.55;;;10.48;100.00
50867;BME280;36839;51.946;21.002;2023-04-30T00:20:43;99891.13;;;10.45;100.00
50867;BME280;36839;51.946;21.002;2023-04-30T00:23:11;99889.09;;;10.44;100.00
50867;BME280;36839;51.946;21.002;2023-04-30T00:25:40;99888.42;;;10.43;100.00
50867;BME280;36839;51.946;21.002;2023-04-30T00:28:07;99887.55;;;10.43;100.00
50867;BME280;36839;51.946;21.002;2023-04-30T00:30:36;99888.33;;;10.43;100.00
50867;BME280;36839;51.946;21.002;2023-04-30T00:33:04;99887.80;;;10.41;100.00
50867;BME280;36839;51.946;21.002;2023-04-30T00:35:32;99884.98;;;10.41;100.00
50867;BME280;36839;51.946;21.002;2023-04-30T00:37:59;99887.14;;;10.40;100.00
50867;BME280;36839;51.946;21.002;2023-04-30T00:40:29;99884.27;;;10.40;100.00
50867;BME280;36839;51.946;21.002;2023-04-30T00:43:05;99883.16;;;10.41;100.00
50867;BME280;36839;51.946;21.002;2023-04-30T00:45:32;99888.55;;;10.43;100.00
50867;BME280;36839;51.946;21.002;2023-04-30T00:48:02;99886.66;;;10.45;100.00
50867;BME280;36839;51.946;21.002;2023-04-30T00:50:40;99887.64;;;10.45;100.00
50867;BME280;36839;51.946;21.002;2023-04-30T00:53:11;99889.31;;;10.44;100.00
50867;BME280;36839;51.946;21.002;2023-04-30T00:55:41;99892.35;;;10.45;100.00
50867;BME280;36839;51.946;21.002;2023-04-30T00:58:11;99892.47;;;10.43;100.00
50867;BME280;36839;51.946;21.002;2023-04-30T01:00:38;99893.83;;;10.42;100.00
50867;BME280;36839;51.946;21.002;2023-04-30T01:03:06;99893.83;;;10.41;100.00
50867;BME280;36839;51.946;21.002;2023-04-30T01:05:33;99896.09;;;10.41;100.00
50867;BME280;36839;51.946;21.002;2023-04-30T01:08:02;99898.42;;;10.41;100.00
50867;BME280;36839;51.946;21.002;2023-04-30T01:10:33;99894.06;;;10.43;100.00
50867;BME280;36839;51.946;21.002;2023-04-30T01:16:18;99892.77;;;10.48;100.00
50867;BME280;36839;51.946;21.002;2023-04-30T01:19:08;99893.44;;;10.52;100.00
50867;BME280;36839;51.946;21.002;2023-04-30T01:21:38;99893.11;;;10.54;100.00
50867;BME280;36839;51.946;21.002;2023-04-30T01:30:00;99894.70;;;10.55;100.00
50867;BME280;36839;51.946;21.002;2023-04-30T01:32:32;99897.73;;;10.54;100.00
50867;BME280;36839;51.946;21.002;2023-04-30T01:34:59;99897.64;;;10.55;100.00
50867;BME280;36839;51.946;21.002;2023-04-30T01:37:58;99901.77;;;10.55;100.00
50867;BME280;36839;51.946;21.002;2023-04-30T01:40:42;99903.98;;;10.56;100.00
50867;BME280;36839;51.946;21.002;2023-04-30T01:46:24;99903.65;;;10.55;100.00
50867;BME280;36839;51.946;21.002;2023-04-30T01:51:37;99911.44;;;10.49;100.00
50867;BME280;36839;51.946;21.002;2023-04-30T01:57:16;99920.89;;;10.42;100.00
50867;BME280;36839;51.946;21.002;2023-04-30T01:59:45;99919.78;;;10.40;100.00
50867;BME280;36839;51.946;21.002;2023-04-30T02:02:12;99921.05;;;10.39;100.00
50867;BME280;36839;51.946;21.002;2023-04-30T02:04:39;99922.71;;;10.39;100.00
50867;BME280;36839;51.946;21.002;2023-04-30T02:07:06;99924.86;;;10.40;100.00
50867;BME280;36839;51.946;21.002;2023-04-30T02:09:32;99925.31;;;10.42;100.00
50867;BME280;36839;51.946;21.002;2023-04-30T02:12:01;99925.48;;;10.46;100.00
50867;BME280;36839;51.946;21.002;2023-04-30T02:14:30;99926.34;;;10.49;100.00
50867;BME280;36839;51.946;21.002;2023-04-30T02:16:57;99926.19;;;10.52;100.00
50867;BME280;36839;51.946;21.002;2023-04-30T02:19:24;99928.23;;;10.55;100.00
50867;BME280;36839;51.946;21.002;2023-04-30T02:21:53;99928.23;;;10.57;100.00
50867;BME280;36839;51.946;21.002;2023-04-30T02:24:22;99928.55;;;10.59;100.00
50867;BME280;36839;51.946;21.002;2023-04-30T02:26:50;99931.70;;;10.61;100.00
50867;BME280;36839;51.946;21.002;2023-04-30T02:29:20;99929.88;;;10.62;100.00
50867;BME280;36839;51.946;21.002;2023-04-30T02:31:48;99928.61;;;10.63;100.00
50867;BME280;36839;51.946;21.002;2023-04-30T02:34:16;99932.14;;;10.63;100.00
50867;BME280;36839;51.946;21.002;2023-04-30T02:36:46;99937.01;;;10.65;100.00
50867;BME280;36839;51.946;21.002;2023-04-30T02:39:15;99938.61;;;10.65;100.00
50867;BME280;36839;51.946;21.002;2023-04-30T02:41:43;99949.15;;;10.65;100.00
50867;BME280;36839;51.946;21.002;2023-04-30T02:44:10;99948.38;;;10.67;100.00
50867;BME280;36839;51.946;21.002;2023-04-30T02:46:37;99954.51;;;10.67;100.00
50867;BME280;36839;51.946;21.002;2023-04-30T02:49:05;99955.72;;;10.69;100.00
50867;BME280;36839;51.946;21.002;2023-04-30T02:51:33;99958.15;;;10.69;100.00
50867;BME280;36839;51.946;21.002;2023-04-30T02:54:01;99957.21;;;10.71;100.00
50867;BME280;36839;51.946;21.002;2023-04-30T02:56:29;99961.25;;;10.71;100.00
50867;BME280;36839;51.946;21.002;2023-04-30T02:58:57;99963.30;;;10.72;100.00
50867;BME280;36839;51.946;21.002;2023-04-30T03:01:24;99965.13;;;10.72;100.00
50867;BME280;36839;51.946;21.002;2023-04-30T03:03:50;99968.22;;;10.73;100.00
50867;BME280;36839;51.946;21.002;2023-04-30T03:06:17;99969.27;;;10.74;100.00
50867;BME280;36839;51.946;21.002;2023-04-30T03:08:44;99973.46;;;10.75;100.00
50867;BME280;36839;51.946;21.002;2023-04-30T03:11:12;99978.20;;;10.75;100.00
50867;BME280;36839;51.946;21.002;2023-04-30T03:13:39;99979.20;;;10.75;100.00
50867;BME280;36839;51.946;21.002;2023-04-30T03:16:06;99983.23;;;10.75;100.00
50867;BME280;36839;51.946;21.002;2023-04-30T03:18:35;99985.16;;;10.76;100.00
50867;BME280;36839;51.946;21.002;2023-04-30T03:21:02;99988.09;;;10.76;100.00
50867;BME280;36839;51.946;21.002;2023-04-30T03:23:31;99994.72;;;10.76;100.00
50867;BME280;36839;51.946;21.002;2023-04-30T03:25:57;100000.08;;;10.76;100.00
50867;BME280;36839;51.946;21.002;2023-04-30T03:28:24;100003.40;;;10.75;100.00
50867;BME280;36839;51.946;21.002;2023-04-30T03:30:54;100001.75;;;10.73;100.00
50867;BME280;36839;51.946;21.002;2023-04-30T03:33:23;100009.48;;;10.73;100.00
50867;BME280;36839;51.946;21.002;2023-04-30T03:35:50;100007.27;;;10.71;100.00
50867;BME280;36839;51.946;21.002;2023-04-30T03:38:19;100011.41;;;10.69;100.00
50867;BME280;36839;51.946;21.002;2023-04-30T03:40:51;100014.22;;;10.68;100.00
50867;BME280;36839;51.946;21.002;2023-04-30T03:43:20;100018.54;;;10.68;100.00
50867;BME280;36839;51.946;21.002;2023-04-30T03:45:52;100023.23;;;10.67;100.00
50867;BME280;36839;51.946;21.002;2023-04-30T03:48:19;100029.24;;;10.68;100.00
50867;BME280;36839;51.946;21.002;2023-04-30T03:50:48;100030.91;;;10.66;100.00
50867;BME280;36839;51.946;21.002;2023-04-30T03:53:19;100040.73;;;10.61;100.00
50867;BME280;36839;51.946;21.002;2023-04-30T03:55:48;100035.59;;;10.57;100.00
50867;BME280;36839;51.946;21.002;2023-04-30T03:58:15;100045.71;;;10.56;100.00
50867;BME280;36839;51.946;21.002;2023-04-30T04:00:53;100049.67;;;10.52;100.00
50867;BME280;36839;51.946;21.002;2023-04-30T04:03:22;100057.07;;;10.48;100.00
50867;BME280;36839;51.946;21.002;2023-04-30T04:05:49;100063.52;;;10.44;100.00
50867;BME280;36839;51.946;21.002;2023-04-30T04:08:15;100063.95;;;10.40;100.00
50867;BME280;36839;51.946;21.002;2023-04-30T04:10:43;100064.89;;;10.37;100.00
50867;BME280;36839;51.946;21.002;2023-04-30T04:13:12;100067.20;;;10.33;100.00
50867;BME280;36839;51.946;21.002;2023-04-30T04:15:40;100076.18;;;10.32;100.00
50867;BME280;36839;51.946;21.002;2023-04-30T04:18:06;100080.48;;;10.25;100.00
50867;BME280;36839;51.946;21.002;2023-04-30T04:20:36;100081.64;;;10.20;100.00
50867;BME280;36839;51.946;21.002;2023-04-30T04:23:05;100087.42;;;10.11;100.00
50867;BME280;36839;51.946;21.002;2023-04-30T04:25:32;100088.77;;;10.03;100.00
50867;BME280;36839;51.946;21.002;2023-04-30T04:30:06;100095.77;;;9.90;100.00
50867;BME280;36839;51.946;21.002;2023-04-30T04:32:37;100106.36;;;9.77;100.00
50867;BME280;36839;51.946;21.002;2023-04-30T04:35:15;100106.73;;;9.65;100.00
50867;BME280;36839;51.946;21.002;2023-04-30T04:37:44;100116.17;;;9.58;100.00
50867;BME280;36839;51.946;21.002;2023-04-30T04:40:12;100119.75;;;9.48;100.00
50867;BME280;36839;51.946;21.002;2023-04-30T04:42:42;100126.20;;;9.38;100.00
50867;BME280;36839;51.946;21.002;2023-04-30T04:45:10;100132.27;;;9.32;100.00
50867;BME280;36839;51.946;21.002;2023-04-30T04:47:38;100136.41;;;9.25;100.00
50867;BME280;36839;51.946;21.002;2023-04-30T04:50:06;100138.14;;;9.20;100.00
50867;BME280;36839;51.946;21.002;2023-04-30T04:52:34;100143.94;;;9.18;100.00
50867;BME280;36839;51.946;21.002;2023-04-30T04:55:02;100146.63;;;9.09;100.00
50867;BME280;36839;51.946;21.002;2023-04-30T04:57:32;100149.67;;;9.10;100.00
50867;BME280;36839;51.946;21.002;2023-04-30T05:00:02;100155.67;;;9.10;100.00
50867;BME280;36839;51.946;21.002;2023-04-30T05:02:34;100157.92;;;9.09;100.00
50867;BME280;36839;51.946;21.002;2023-04-30T05:05:04;100160.00;;;9.07;100.00
50867;BME280;36839;51.946;21.002;2023-04-30T05:07:42;100164.10;;;9.02;100.00
50867;BME280;36839;51.946;21.002;2023-04-30T05:10:11;100165.66;;;9.04;100.00
50867;BME280;36839;51.946;21.002;2023-04-30T05:12:39;100170.13;;;9.06;100.00
50867;BME280;36839;51.946;21.002;2023-04-30T05:15:07;100179.42;;;9.03;100.00
50867;BME280;36839;51.946;21.002;2023-04-30T05:17:37;100172.17;;;9.07;100.00
50867;BME280;36839;51.946;21.002;2023-04-30T05:20:06;100176.61;;;9.10;100.00
50867;BME280;36839;51.946;21.002;2023-04-30T05:22:38;100177.65;;;9.08;100.00
50867;BME280;36839;51.946;21.002;2023-04-30T05:25:10;100184.77;;;9.16;100.00
50867;BME280;36839;51.946;21.002;2023-04-30T05:27:45;100183.48;;;9.15;100.00
50867;BME280;36839;51.946;21.002;2023-04-30T05:30:13;100190.24;;;9.19;100.00
50867;BME280;36839;51.946;21.002;2023-04-30T05:32:43;100194.86;;;9.23;100.00
50867;BME280;36839;51.946;21.002;2023-04-30T05:35:18;100199.05;;;9.21;100.00
50867;BME280;36839;51.946;21.002;2023-04-30T05:37:45;100199.65;;;9.22;100.00
50867;BME280;36839;51.946;21.002;2023-04-30T05:40:13;100195.69;;;9.22;100.00
50867;BME280;36839;51.946;21.002;2023-04-30T05:42:43;100201.41;;;9.22;100.00
50867;BME280;36839;51.946;21.002;2023-04-30T05:45:12;100205.95;;;9.24;100.00
50867;BME280;36839;51.946;21.002;2023-04-30T05:47:49;100205.25;;;9.26;100.00
50867;BME280;36839;51.946;21.002;2023-04-30T05:50:20;100212.98;;;9.28;100.00
50867;BME280;36839;51.946;21.002;2023-04-30T05:52:47;100212.98;;;9.35;100.00
50867;BME280;36839;51.946;21.002;2023-04-30T05:55:18;100212.54;;;9.46;100.00
50867;BME280;36839;51.946;21.002;2023-04-30T05:57:45;100216.40;;;9.48;100.00
50867;BME280;36839;51.946;21.002;2023-04-30T06:00:19;100217.90;;;9.78;100.00
50867;BME280;36839;51.946;21.002;2023-04-30T06:02:46;100216.15;;;10.05;100.00
50867;BME280;36839;51.946;21.002;2023-04-30T06:05:15;100220.59;;;10.09;100.00
50867;BME280;36839;51.946;21.002;2023-04-30T06:07:43;100223.20;;;10.19;100.00
50867;BME280;36839;51.946;21.002;2023-04-30T06:10:11;100225.75;;;10.40;100.00
50867;BME280;36839;51.946;21.002;2023-04-30T06:12:39;100229.40;;;10.30;100.00
50867;BME280;36839;51.946;21.002;2023-04-30T06:15:07;100227.89;;;10.27;100.00
50867;BME280;36839;51.946;21.002;2023-04-30T06:17:37;100235.64;;;10.30;100.00
50867;BME280;36839;51.946;21.002;2023-04-30T06:20:14;100240.29;;;10.18;100.00
50867;BME280;36839;51.946;21.002;2023-04-30T06:22:45;100236.76;;;10.16;100.00
50867;BME280;36839;51.946;21.002;2023-04-30T06:25:20;100240.14;;;10.13;100.00
50867;BME280;36839;51.946;21.002;2023-04-30T06:27:48;100245.04;;;10.10;100.00
50867;BME280;36839;51.946;21.002;2023-04-30T06:30:20;100251.34;;;10.01;100.00
50867;BME280;36839;51.946;21.002;2023-04-30T06:32:47;100250.05;;;9.97;100.00
50867;BME280;36839;51.946;21.002;2023-04-30T06:35:14;100253.34;;;9.95;100.00
50867;BME280;36839;51.946;21.002;2023-04-30T06:37:49;100259.22;;;9.93;100.00
50867;BME280;36839;51.946;21.002;2023-04-30T06:40:16;100261.23;;;9.87;100.00
50867;BME280;36839;51.946;21.002;2023-04-30T06:42:46;100260.65;;;9.85;100.00
50867;BME280;36839;51.946;21.002;2023-04-30T06:45:13;100265.20;;;9.81;100.00
50867;BME280;36839;51.946;21.002;2023-04-30T06:47:41;100267.75;;;9.74;100.00
50867;BME280;36839;51.946;21.002;2023-04-30T06:50:09;100271.08;;;9.64;100.00
50867;BME280;36839;51.946;21.002;2023-04-30T06:52:40;100266.48;;;9.61;100.00
50867;BME280;36839;51.946;21.002;2023-04-30T06:55:12;100267.45;;;9.65;100.00
50867;BME280;36839;51.946;21.002;2023-04-30T06:57:48;100264.94;;;9.75;100.00
50867;BME280;36839;51.946;21.002;2023-04-30T07:00:19;100270.04;;;9.86;100.00
50867;BME280;36839;51.946;21.002;2023-04-30T07:02:54;100271.67;;;9.98;100.00
50867;BME280;36839;51.946;21.002;2023-04-30T07:05:25;100277.37;;;10.08;100.00
50867;BME280;36839;51.946;21.002;2023-04-30T07:07:56;100269.52;;;10.19;100.00
50867;BME280;36839;51.946;21.002;2023-04-30T07:10:32;100277.56;;;10.34;100.00
50867;BME280;36839;51.946;21.002;2023-04-30T07:13:00;100272.93;;;10.37;100.00
50867;BME280;36839;51.946;21.002;2023-04-30T07:15:29;100271.70;;;10.52;100.00
50867;BME280;36839;51.946;21.002;2023-04-30T07:17:57;100269.45;;;10.67;100.00
50867;BME280;36839;51.946;21.002;2023-04-30T07:20:25;100266.06;;;10.78;100.00
50867;BME280;36839;51.946;21.002;2023-04-30T07:22:53;100269.79;;;10.95;100.00
50867;BME280;36839;51.946;21.002;2023-04-30T07:25:21;100273.05;;;10.99;100.00
50867;BME280;36839;51.946;21.002;2023-04-30T07:27:51;100268.83;;;10.91;100.00
50867;BME280;36839;51.946;21.002;2023-04-30T07:30:20;100275.33;;;10.89;100.00
50867;BME280;36839;51.946;21.002;2023-04-30T07:32:47;100274.16;;;10.86;100.00
50867;BME280;36839;51.946;21.002;2023-04-30T07:35:29;100277.95;;;10.77;100.00
50867;BME280;36839;51.946;21.002;2023-04-30T07:38:02;100280.31;;;10.78;100.00
50867;BME280;36839;51.946;21.002;2023-04-30T07:40:31;100280.33;;;10.79;100.00
50867;BME280;36839;51.946;21.002;2023-04-30T07:42:58;100288.11;;;10.79;99.85
50867;BME280;36839;51.946;21.002;2023-04-30T07:45:28;100292.08;;;10.75;99.97
50867;BME280;36839;51.946;21.002;2023-04-30T07:47:55;100295.91;;;10.68;97.25
50867;BME280;36839;51.946;21.002;2023-04-30T07:50:22;100299.63;;;10.70;95.08
50867;BME280;36839;51.946;21.002;2023-04-30T07:52:59;100301.08;;;10.89;95.04
50867;BME280;36839;51.946;21.002;2023-04-30T07:55:27;100298.10;;;11.03;92.86
50867;BME280;36839;51.946;21.002;2023-04-30T07:57:57;100302.51;;;11.19;94.88
50867;BME280;36839;51.946;21.002;2023-04-30T08:00:26;100301.39;;;10.97;92.21
50867;BME280;36839;51.946;21.002;2023-04-30T08:03:02;100303.98;;;10.78;91.68
50867;BME280;36839;51.946;21.002;2023-04-30T08:05:30;100295.13;;;10.91;93.13
50867;BME280;36839;51.946;21.002;2023-04-30T08:07:58;100306.61;;;11.05;91.35
50867;BME280;36839;51.946;21.002;2023-04-30T08:10:25;100302.77;;;11.09;88.52
50867;BME280;36839;51.946;21.002;2023-04-30T08:12:56;100308.63;;;11.15;87.83
50867;BME280;36839;51.946;21.002;2023-04-30T08:15:23;100304.92;;;11.30;88.64
50867;BME280;36839;51.946;21.002;2023-04-30T08:17:51;100305.22;;;11.44;88.38
50867;BME280;36839;51.946;21.002;2023-04-30T08:20:20;100305.69;;;11.62;89.20
50867;BME280;36839;51.946;21.002;2023-04-30T08:22:52;100316.16;;;11.68;85.38
50867;BME280;36839;51.946;21.002;2023-04-30T08:25:19;100314.21;;;11.70;83.79
50867;BME280;36839;51.946;21.002;2023-04-30T08:27:54;100314.69;;;11.78;83.77
50867;BME280;36839;51.946;21.002;2023-04-30T08:30:22;100327.50;;;11.73;80.10
50867;BME280;36839;51.946;21.002;2023-04-30T08:32:52;100319.69;;;11.66;78.71
50867;BME280;36839;51.946;21.002;2023-04-30T08:35:20;100317.25;;;11.71;80.77
50867;BME280;36839;51.946;21.002;2023-04-30T08:37:47;100313.95;;;11.75;80.10
50867;BME280;36839;51.946;21.002;2023-04-30T08:40:17;100319.52;;;11.87;79.76
50867;BME280;36839;51.946;21.002;2023-04-30T08:42:50;100327.54;;;11.82;74.31
50867;BME280;36839;51.946;21.002;2023-04-30T08:45:23;100327.77;;;11.99;75.44
50867;BME280;36839;51.946;21.002;2023-04-30T08:47:51;100327.59;;;12.08;73.88
50867;BME280;36839;51.946;21.002;2023-04-30T08:50:18;100362.13;;;11.84;68.80
50867;BME280;36839;51.946;21.002;2023-04-30T08:52:47;100338.70;;;11.80;68.03
50867;BME280;36839;51.946;21.002;2023-04-30T08:55:17;100343.09;;;11.83;67.35
50867;BME280;36839;51.946;21.002;2023-04-30T08:57:46;100355.00;;;11.76;67.82
50867;BME280;36839;51.946;21.002;2023-04-30T09:00:14;100353.24;;;11.77;70.43
50867;BME280;36839;51.946;21.002;2023-04-30T09:02:42;100339.98;;;11.82;71.21
50867;BME280;36839;51.946;21.002;2023-04-30T09:05:14;100341.21;;;11.85;72.48
50867;BME280;36839;51.946;21.002;2023-04-30T09:07:44;100347.91;;;12.03;72.84
50867;BME280;36839;51.946;21.002;2023-04-30T09:10:18;100355.39;;;12.06;69.78
50867;BME280;36839;51.946;21.002;2023-04-30T09:15:29;100365.08;;;11.91;61.24
50867;BME280;36839;51.946;21.002;2023-04-30T09:18:15;100370.34;;;11.87;60.35
50867;BME280;36839;51.946;21.002;2023-04-30T09:20:59;100369.11;;;11.87;61.63
50867;BME280;36839;51.946;21.002;2023-04-30T09:23:29;100366.41;;;11.93;64.18
50867;BME280;36839;51.946;21.002;2023-04-30T09:26:19;100363.98;;;12.02;62.45
50867;BME280;36839;51.946;21.002;2023-04-30T09:28:57;100364.48;;;12.13;61.83
50867;BME280;36839;51.946;21.002;2023-04-30T09:31:34;100366.07;;;12.13;60.01
50867;BME280;36839;51.946;21.002;2023-04-30T09:34:05;100365.02;;;12.22;60.75
50867;BME280;36839;51.946;21.002;2023-04-30T09:36:35;100370.61;;;12.25;57.15
50867;BME280;36839;51.946;21.002;2023-04-30T09:39:08;100368.95;;;12.34;55.78
50867;BME280;36839;51.946;21.002;2023-04-30T09:41:38;100366.73;;;12.27;53.73
50867;BME280;36839;51.946;21.002;2023-04-30T09:44:30;100362.41;;;12.26;54.04
50867;BME280;36839;51.946;21.002;2023-04-30T09:46:59;100372.50;;;12.28;52.03
50867;BME280;36839;51.946;21.002;2023-04-30T09:49:26;100371.93;;;12.35;48.16
50867;BME280;36839;51.946;21.002;2023-04-30T09:51:58;100377.48;;;12.42;46.72
50867;BME280;36839;51.946;21.002;2023-04-30T09:54:29;100376.42;;;12.41;44.68
50867;BME280;36839;51.946;21.002;2023-04-30T09:56:59;100377.84;;;12.50;44.30
50867;BME280;36839;51.946;21.002;2023-04-30T09:59:33;100372.08;;;12.54;42.05
50867;BME280;36839;51.946;21.002;2023-04-30T10:02:07;100381.59;;;12.58;42.27
50867;BME280;36839;51.946;21.002;2023-04-30T10:04:56;100376.82;;;12.65;42.63
50867;BME280;36839;51.946;21.002;2023-04-30T10:07:30;100385.35;;;12.65;40.99
50867;BME280;36839;51.946;21.002;2023-04-30T10:10:07;100366.59;;;12.56;40.98
50867;BME280;36839;51.946;21.002;2023-04-30T10:12:42;100374.71;;;12.66;38.97
50867;BME280;36839;51.946;21.002;2023-04-30T10:15:19;100376.38;;;12.65;37.44
50867;BME280;36839;51.946;21.002;2023-04-30T10:17:55;100366.39;;;12.88;40.20
50867;BME280;36839;51.946;21.002;2023-04-30T10:20:25;100381.02;;;12.95;38.84
50867;BME280;36839;51.946;21.002;2023-04-30T10:22:55;100377.19;;;12.94;38.78
50867;BME280;36839;51.946;21.002;2023-04-30T10:25:31;100366.26;;;12.97;40.59
50867;BME280;36839;51.946;21.002;2023-04-30T10:28:01;100377.81;;;12.90;40.96
50867;BME280;36839;51.946;21.002;2023-04-30T10:30:32;100377.83;;;12.87;42.49
50867;BME280;36839;51.946;21.002;2023-04-30T10:36:41;100377.84;;;13.01;42.23
50867;BME280;36839;51.946;21.002;2023-04-30T10:39:11;100362.54;;;12.99;41.86
50867;BME280;36839;51.946;21.002;2023-04-30T10:41:44;100365.52;;;13.20;42.49
50867;BME280;36839;51.946;21.002;2023-04-30T10:44:22;100372.72;;;13.04;41.74
50867;BME280;36839;51.946;21.002;2023-04-30T10:47:02;100363.15;;;13.10;42.65
50867;BME280;36839;51.946;21.002;2023-04-30T10:49:33;100371.77;;;13.24;42.39
50867;BME280;36839;51.946;21.002;2023-04-30T10:52:03;100362.54;;;13.29;41.96
50867;BME280;36839;51.946;21.002;2023-04-30T10:54:35;100360.93;;;13.38;43.41
50867;BME280;36839;51.946;21.002;2023-04-30T10:57:14;100360.09;;;13.42;41.38
50867;BME280;36839;51.946;21.002;2023-04-30T11:00:35;100366.09;;;13.41;41.24
50867;BME280;36839;51.946;21.002;2023-04-30T11:02:44;100363.03;;;13.32;41.12
50867;BME280;36839;51.946;21.002;2023-04-30T11:05:16;100354.83;;;13.50;41.64
50867;BME280;36839;51.946;21.002;2023-04-30T11:07:50;100361.38;;;13.61;41.07
50867;BME280;36839;51.946;21.002;2023-04-30T11:10:25;100368.15;;;13.60;41.27
50867;BME280;36839;51.946;21.002;2023-04-30T11:12:55;100367.41;;;13.72;39.75
50867;BME280;36839;51.946;21.002;2023-04-30T11:15:26;100361.56;;;13.81;39.89
50867;BME280;36839;51.946;21.002;2023-04-30T11:18:03;100371.55;;;13.92;39.95
50867;BME280;36839;51.946;21.002;2023-04-30T11:20:33;100366.88;;;13.78;40.15
50867;BME280;36839;51.946;21.002;2023-04-30T11:23:11;100369.79;;;13.82;40.33
50867;BME280;36839;51.946;21.002;2023-04-30T11:25:44;100380.88;;;13.74;38.34
50867;BME280;36839;51.946;21.002;2023-04-30T11:28:25;100373.01;;;13.73;39.21
50867;BME280;36839;51.946;21.002;2023-04-30T11:30:58;100377.25;;;13.86;40.35
50867;BME280;36839;51.946;21.002;2023-04-30T11:33:28;100358.94;;;14.00;41.10
50867;BME280;36839;51.946;21.002;2023-04-30T11:35:59;100364.76;;;13.93;40.45
50867;BME280;36839;51.946;21.002;2023-04-30T11:38:36;100374.17;;;14.04;40.96
50867;BME280;36839;51.946;21.002;2023-04-30T11:41:11;100371.38;;;13.92;38.81
50867;BME280;36839;51.946;21.002;2023-04-30T11:43:41;100383.72;;;13.96;39.29
50867;BME280;36839;51.946;21.002;2023-04-30T11:46:14;100387.09;;;13.90;39.09
50867;BME280;36839;51.946;21.002;2023-04-30T11:48:45;100384.59;;;14.00;39.88
50867;BME280;36839;51.946;21.002;2023-04-30T11:51:23;100379.17;;;14.17;40.55
50867;BME280;36839;51.946;21.002;2023-04-30T11:53:51;100400.81;;;14.15;40.72
50867;BME280;36839;51.946;21.002;2023-04-30T11:56:22;100399.66;;;13.96;39.44
50867;BME280;36839;51.946;21.002;2023-04-30T11:58:52;100399.80;;;14.00;40.54
50867;BME280;36839;51.946;21.002;2023-04-30T12:01:29;100403.01;;;13.95;40.74
50867;BME280;36839;51.946;21.002;2023-04-30T12:03:57;100412.02;;;14.04;40.82
50867;BME280;36839;51.946;21.002;2023-04-30T12:06:26;100397.86;;;14.08;39.50
50867;BME280;36839;51.946;21.002;2023-04-30T12:08:57;100390.98;;;14.34;40.18
50867;BME280;36839;51.946;21.002;2023-04-30T12:11:30;100398.44;;;14.46;40.73
50867;BME280;36839;51.946;21.002;2023-04-30T12:14:04;100408.80;;;14.45;39.60
50867;BME280;36839;51.946;21.002;2023-04-30T12:19:09;100409.98;;;14.62;37.64
50867;BME280;36839;51.946;21.002;2023-04-30T12:21:42;100410.48;;;14.41;37.42
50867;BME280;36839;51.946;21.002;2023-04-30T12:24:18;100406.09;;;14.44;37.96
50867;BME280;36839;51.946;21.002;2023-04-30T12:26:58;100410.37;;;14.42;37.27
50867;BME280;36839;51.946;21.002;2023-04-30T12:29:29;100409.23;;;14.31;37.45
50867;BME280;36839;51.946;21.002;2023-04-30T12:32:43;100405.71;;;14.40;36.86
50867;BME280;36839;51.946;21.002;2023-04-30T12:35:16;100409.55;;;14.49;37.46
50867;BME280;36839;51.946;21.002;2023-04-30T12:37:45;100407.02;;;14.44;36.50
50867;BME280;36839;51.946;21.002;2023-04-30T12:40:28;100401.46;;;14.59;36.48
50867;BME280;36839;51.946;21.002;2023-04-30T12:43:03;100402.95;;;14.70;37.57
50867;BME280;36839;51.946;21.002;2023-04-30T12:45:53;100402.29;;;14.67;36.03
50867;BME280;36839;51.946;21.002;2023-04-30T12:48:23;100385.90;;;14.73;36.54
50867;BME280;36839;51.946;21.002;2023-04-30T12:50:57;100394.11;;;14.60;36.45
50867;BME280;36839;51.946;21.002;2023-04-30T12:53:31;100385.83;;;14.55;35.81
50867;BME280;36839;51.946;21.002;2023-04-30T12:56:12;100397.47;;;14.51;36.74
50867;BME280;36839;51.946;21.002;2023-04-30T12:58:44;100388.85;;;14.70;35.36
50867;BME280;36839;51.946;21.002;2023-04-30T13:01:18;100383.27;;;14.76;36.00
50867;BME280;36839;51.946;21.002;2023-04-30T13:03:52;100390.77;;;14.71;35.79
50867;BME280;36839;51.946;21.002;2023-04-30T13:06:20;100381.73;;;14.80;34.64
50867;BME280;36839;51.946;21.002;2023-04-30T13:08:48;100387.17;;;15.05;34.66
50867;BME280;36839;51.946;21.002;2023-04-30T13:11:25;100387.41;;;15.35;35.34
50867;BME280;36839;51.946;21.002;2023-04-30T13:13:55;100392.27;;;15.42;33.32
50867;BME280;36839;51.946;21.002;2023-04-30T13:16:23;100390.09;;;15.30;32.28
50867;BME280;36839;51.946;21.002;2023-04-30T13:18:51;100378.95;;;15.18;31.91
50867;BME280;36839;51.946;21.002;2023-04-30T13:21:29;100383.38;;;15.15;32.15
50867;BME280;36839;51.946;21.002;2023-04-30T13:23:56;100385.06;;;15.31;34.02
50867;BME280;36839;51.946;21.002;2023-04-30T13:26:25;100386.32;;;15.25;32.96